Time;durP1;ratioP1;P1;durP2;ratioP2;P2;SDS_P1;SDS_P2;PMS_P1;PMS_P2;Temp;Humidity;BMP_temperature;BMP_pressure;BME280_temperature;BME280_humidity;BME280_pressure;Samples;Min_cycle;Max_cycle;Signal;HPM_P1;HPM_P2
2023/05/01 00:02:48;;;;;;;5.72;2.85;;;;;;;;;;6231070;28;20038;-76
2023/05/01 00:05:50;;;;;;;3.90;2.33;;;;;;;;;;6252501;28;20179;-78
2023/05/01 00:08:51;;;;;;;3.92;2.13;;;;;;;;;;6227676;28;20096;-77
2023/05/01 00:11:53;;;;;;;4.22;2.17;;;;;;;;;;6211797;28;20479;-77
2023/05/01 00:14:54;;;;;;;3.47;2.20;;;;;;;;;;6226517;28;20140;-77
2023/05/01 00:17:57;;;;;;;4.60;2.28;;;;;;;;;;6223902;28;20045;-78
2023/05/01 00:20:59;;;;;;;3.43;2.17;;;;;;;;;;6232475;28;20126;-76
2023/05/01 00:24:00;;;;;;;4.22;2.40;;;;;;;;;;6235610;28;20049;-77
2023/05/01 00:27:02;;;;;;;2.75;2.25;;;;;;;;;;6231072;28;20116;-76
2023/05/01 00:30:04;;;;;;;3.70;2.00;;;;;;;;;;6231205;28;20459;-76
2023/05/01 00:33:06;;;;;;;3.57;2.30;;;;;;;;;;6235113;28;20060;-77
2023/05/01 00:36:08;;;;;;;3.90;2.13;;;;;;;;;;6238828;28;20064;-76
2023/05/01 00:39:11;;;;;;;3.70;2.30;;;;;;;;;;6234885;28;20037;-77
2023/05/01 00:42:12;;;;;;;5.18;2.55;;;;;;;;;;6210876;28;20049;-77
2023/05/01 00:45:14;;;;;;;5.05;2.80;;;;;;;;;;6227680;28;20199;-77
2023/05/01 00:48:16;;;;;;;4.07;2.30;;;;;;;;;;6229488;28;20041;-77
2023/05/01 00:51:19;;;;;;;4.95;2.72;;;;;;;;;;6226034;28;20056;-77
2023/05/01 00:54:24;;;;;;;5.35;2.60;;;;;;;;;;6240374;28;20038;-77
2023/05/01 00:57:26;;;;;;;4.00;2.67;;;;;;;;;;6245826;28;20057;-77
2023/05/01 01:00:28;;;;;;;4.57;2.33;;;;;;;;;;6227943;28;20037;-77
2023/05/01 01:03:30;;;;;;;4.95;3.03;;;;;;;;;;6224614;28;20060;-77
2023/05/01 01:06:35;;;;;;;3.65;2.58;;;;;;;;;;6227804;28;20042;-77
2023/05/01 01:09:54;;;;;;;4.47;3.05;;;;;;;;;;6227590;28;20042;-78
2023/05/01 01:13:32;;;;;;;5.80;2.83;;;;;;;;;;6222163;28;20046;-77
2023/05/01 01:16:44;;;;;;;5.07;3.00;;;;;;;;;;6229458;28;20551;-77
2023/05/01 01:20:07;;;;;;;5.43;2.92;;;;;;;;;;6230493;28;20049;-76
2023/05/01 01:23:24;;;;;;;4.13;2.53;;;;;;;;;;6226713;28;20038;-77
2023/05/01 01:26:41;;;;;;;5.43;3.00;;;;;;;;;;6230961;28;20106;-77
2023/05/01 01:30:02;;;;;;;4.20;2.90;;;;;;;;;;6227546;28;20120;-77
2023/05/01 01:33:29;;;;;;;7.32;3.08;;;;;;;;;;6231899;28;20499;-76
2023/05/01 01:36:37;;;;;;;4.88;2.85;;;;;;;;;;6202479;28;20041;-77
2023/05/01 01:40:10;;;;;;;5.03;3.00;;;;;;;;;;6244057;28;20142;-77
2023/05/01 01:43:15;;;;;;;4.03;2.58;;;;;;;;;;6230653;28;20106;-76
2023/05/01 01:46:19;;;;;;;6.07;3.10;;;;;;;;;;6231465;28;20538;-77
2023/05/01 01:49:25;;;;;;;3.20;2.60;;;;;;;;;;6254045;28;20084;-77
2023/05/01 01:52:29;;;;;;;2.67;2.38;;;;;;;;;;6235023;28;20050;-78
2023/05/01 01:55:34;;;;;;;3.95;2.92;;;;;;;;;;6233730;28;20041;-78
2023/05/01 01:58:38;;;;;;;5.75;2.85;;;;;;;;;;6247372;28;20499;-77
2023/05/01 02:01:40;;;;;;;4.78;3.50;;;;;;;;;;6231944;28;20110;-77
2023/05/01 02:04:43;;;;;;;5.65;2.88;;;;;;;;;;6233527;28;20124;-76
2023/05/01 02:07:48;;;;;;;4.70;3.07;;;;;;;;;;6231837;28;20426;-77
2023/05/01 02:10:56;;;;;;;4.25;2.97;;;;;;;;;;6232967;28;20092;-76
2023/05/01 02:14:02;;;;;;;6.22;3.60;;;;;;;;;;6230649;28;20044;-77
2023/05/01 02:17:05;;;;;;;7.15;3.45;;;;;;;;;;6228188;28;20396;-76
2023/05/01 02:20:09;;;;;;;4.57;3.03;;;;;;;;;;6250625;28;20095;-76
2023/05/01 02:23:12;;;;;;;6.78;3.03;;;;;;;;;;6228255;28;20563;-77
2023/05/01 02:26:18;;;;;;;5.23;3.20;;;;;;;;;;6231351;28;20093;-76
2023/05/01 02:29:20;;;;;;;6.50;3.30;;;;;;;;;;6229264;28;20045;-76
2023/05/01 02:32:22;;;;;;;5.57;3.20;;;;;;;;;;6229196;28;20065;-77
2023/05/01 02:35:24;;;;;;;6.90;3.60;;;;;;;;;;6230901;28;20423;-76
2023/05/01 02:38:26;;;;;;;5.68;3.30;;;;;;;;;;6231086;28;20651;-77
2023/05/01 02:41:30;;;;;;;4.28;3.03;;;;;;;;;;6230369;28;20050;-77
2023/05/01 02:44:39;;;;;;;5.43;3.50;;;;;;;;;;6231929;28;20045;-77
2023/05/01 02:47:44;;;;;;;4.40;3.17;;;;;;;;;;6228613;28;20045;-77
2023/05/01 02:50:48;;;;;;;6.95;3.28;;;;;;;;;;6219222;28;20499;-77
2023/05/01 02:53:49;;;;;;;;;;;;;;;;;;6232085;28;20041;-76
2023/05/01 02:56:57;;;;;;;4.18;2.70;;;;;;;;;;6210911;28;19928;-76
2023/05/01 02:59:58;;;;;;;5.15;3.17;;;;;;;;;;6232583;28;20136;-77
2023/05/01 03:03:00;;;;;;;5.07;2.97;;;;;;;;;;6232002;28;20050;-77
2023/05/01 03:06:02;;;;;;;7.53;3.40;;;;;;;;;;6229837;28;20060;-76
2023/05/01 03:09:04;;;;;;;6.25;3.25;;;;;;;;;;6231013;28;20060;-77
2023/05/01 03:12:06;;;;;;;4.88;3.42;;;;;;;;;;6207944;28;20176;-76
2023/05/01 03:15:08;;;;;;;5.32;3.38;;;;;;;;;;6234228;28;20048;-76
2023/05/01 03:18:09;;;;;;;7.05;3.58;;;;;;;;;;6236173;28;20048;-76
2023/05/01 03:21:12;;;;;;;5.38;3.38;;;;;;;;;;6231996;28;20599;-76
2023/05/01 03:24:14;;;;;;;5.05;3.47;;;;;;;;;;6232108;28;20092;-77
2023/05/01 03:27:16;;;;;;;5.70;3.40;;;;;;;;;;6226327;28;20172;-76
2023/05/01 03:30:18;;;;;;;6.65;3.78;;;;;;;;;;6235789;28;20463;-76
2023/05/01 03:33:20;;;;;;;6.72;3.55;;;;;;;;;;6229879;28;20040;-77
2023/05/01 03:36:21;;;;;;;6.63;3.78;;;;;;;;;;6233170;28;20049;-77
2023/05/01 03:39:25;;;;;;;5.90;3.90;;;;;;;;;;6216603;28;20741;-77
2023/05/01 03:42:50;;;;;;;4.90;3.35;;;;;;;;;;6230947;28;20468;-76
2023/05/01 03:45:57;;;;;;;6.60;4.22;;;;;;;;;;6242950;28;20053;-77
2023/05/01 03:48:59;;;;;;;5.22;3.47;;;;;;;;;;6229573;28;20041;-77
2023/05/01 03:52:03;;;;;;;5.90;3.75;;;;;;;;;;6228044;28;20041;-77
2023/05/01 03:55:06;;;;;;;6.07;3.90;;;;;;;;;;6226186;28;20041;-77
2023/05/01 03:58:14;;;;;;;5.97;3.42;;;;;;;;;;6219611;28;20047;-76
2023/05/01 04:01:16;;;;;;;6.78;4.03;;;;;;;;;;6226546;28;20133;-76
2023/05/01 04:04:18;;;;;;;7.03;4.40;;;;;;;;;;6228074;28;20049;-76
2023/05/01 04:07:26;;;;;;;7.38;4.80;;;;;;;;;;6227851;28;20056;-77
2023/05/01 04:10:28;;;;;;;7.43;5.07;;;;;;;;;;6228923;28;20041;-78
2023/05/01 04:13:34;;;;;;;5.47;4.68;;;;;;;;;;6226430;28;20127;-77
2023/05/01 04:16:36;;;;;;;8.98;5.38;;;;;;;;;;6229298;28;20045;-77
2023/05/01 04:19:38;;;;;;;8.98;4.93;;;;;;;;;;6227042;28;20041;-77
2023/05/01 04:22:40;;;;;;;9.95;5.38;;;;;;;;;;6227812;28;20052;-77
2023/05/01 04:25:41;;;;;;;18.10;10.00;;;;;;;;;;6231894;28;20044;-77
2023/05/01 04:28:46;;;;;;;14.52;8.43;;;;;;;;;;6244180;28;20132;-77
2023/05/01 04:31:52;;;;;;;11.43;5.13;;;;;;;;;;6224684;28;20040;-77
2023/05/01 04:34:54;;;;;;;7.13;4.70;;;;;;;;;;6249471;28;20054;-77
2023/05/01 04:37:56;;;;;;;7.80;4.22;;;;;;;;;;6242625;28;20426;-77
2023/05/01 04:40:58;;;;;;;14.90;7.68;;;;;;;;;;6231772;28;20124;-77
2023/05/01 04:44:00;;;;;;;7.82;4.72;;;;;;;;;;6225162;28;20158;-77
2023/05/01 04:47:03;;;;;;;29.73;14.23;;;;;;;;;;6224080;28;20152;-78
2023/05/01 04:50:05;;;;;;;6.85;4.82;;;;;;;;;;6231983;28;20037;-77
2023/05/01 04:53:07;;;;;;;6.72;4.55;;;;;;;;;;6227084;28;20576;-77
2023/05/01 04:56:10;;;;;;;7.43;4.43;;;;;;;;;;6241088;28;20060;-77
2023/05/01 04:59:12;;;;;;;9.05;4.95;;;;;;;;;;6232063;28;20041;-77
2023/05/01 05:02:13;;;;;;;7.72;5.03;;;;;;;;;;6244770;28;20041;-78
2023/05/01 05:05:15;;;;;;;7.07;4.72;;;;;;;;;;6224538;28;20894;-77
2023/05/01 05:08:17;;;;;;;6.90;4.85;;;;;;;;;;6242296;28;20562;-77
2023/05/01 05:11:23;;;;;;;7.07;4.63;;;;;;;;;;6225906;28;20049;-77
2023/05/01 05:14:37;;;;;;;6.28;4.07;;;;;;;;;;6242734;28;20048;-78
2023/05/01 05:17:39;;;;;;;7.55;4.82;;;;;;;;;;6224115;28;20515;-78
2023/05/01 05:20:41;;;;;;;6.70;4.43;;;;;;;;;;6227781;28;20103;-77
2023/05/01 05:23:43;;;;;;;7.18;4.93;;;;;;;;;;6225694;28;20096;-77
2023/05/01 05:26:45;;;;;;;7.85;5.00;;;;;;;;;;6224941;28;20037;-77
2023/05/01 05:29:49;;;;;;;5.93;4.13;;;;;;;;;;6244791;28;20052;-77
2023/05/01 05:32:50;;;;;;;7.03;5.43;;;;;;;;;;6220931;28;20049;-77
2023/05/01 05:35:53;;;;;;;5.55;4.40;;;;;;;;;;6225269;28;21436;-76
2023/05/01 05:38:59;;;;;;;7.10;5.00;;;;;;;;;;6240498;28;20507;-77
2023/05/01 05:42:02;;;;;;;7.80;4.78;;;;;;;;;;6230101;28;20085;-77
2023/05/01 05:45:05;;;;;;;7.07;4.35;;;;;;;;;;6229326;28;20053;-77
2023/05/01 05:48:07;;;;;;;7.15;4.55;;;;;;;;;;6225100;28;20105;-77
2023/05/01 05:51:12;;;;;;;7.90;4.50;;;;;;;;;;6212921;28;20076;-77
2023/05/01 05:54:14;;;;;;;7.10;4.28;;;;;;;;;;6245454;28;20033;-77
2023/05/01 05:57:15;;;;;;;7.00;4.18;;;;;;;;;;6222148;28;20360;-77
2023/05/01 06:00:22;;;;;;;5.68;3.92;;;;;;;;;;6232589;28;20045;-77
2023/05/01 06:03:26;;;;;;;6.03;4.13;;;;;;;;;;6220956;28;20049;-77
2023/05/01 06:06:33;;;;;;;5.13;3.97;;;;;;;;;;6224632;28;20048;-77
2023/05/01 06:09:36;;;;;;;4.50;3.78;;;;;;;;;;6229391;28;21461;-77
2023/05/01 06:12:37;;;;;;;7.43;3.50;;;;;;;;;;6228452;28;20068;-76
2023/05/01 06:15:46;;;;;;;5.57;3.60;;;;;;;;;;6223845;28;20045;-77
2023/05/01 06:18:48;;;;;;;4.47;3.42;;;;;;;;;;6229589;28;20041;-77
2023/05/01 06:21:50;;;;;;;5.93;3.47;;;;;;;;;;6226581;28;20060;-77
2023/05/01 06:24:52;;;;;;;4.93;3.38;;;;;;;;;;6211567;28;20039;-76
2023/05/01 06:27:53;;;;;;;6.50;3.20;;;;;;;;;;6223295;28;20136;-77
2023/05/01 06:30:57;;;;;;;6.05;3.60;;;;;;;;;;6226354;28;20136;-76
2023/05/01 06:34:00;;;;;;;6.25;3.28;;;;;;;;;;6232756;28;20454;-77
2023/05/01 06:37:06;;;;;;;5.05;3.25;;;;;;;;;;6226662;28;20049;-77
2023/05/01 06:40:09;;;;;;;6.85;3.10;;;;;;;;;;6234279;28;20037;-76
2023/05/01 06:43:11;;;;;;;4.13;2.92;;;;;;;;;;6239714;28;20155;-77
2023/05/01 06:46:13;;;;;;;4.22;2.90;;;;;;;;;;6227659;28;20042;-76
2023/05/01 06:49:15;;;;;;;4.68;3.20;;;;;;;;;;6229568;28;20790;-77
2023/05/01 06:52:17;;;;;;;4.95;3.03;;;;;;;;;;6231420;28;20052;-76
2023/05/01 06:55:18;;;;;;;5.97;2.97;;;;;;;;;;6244900;28;20105;-77
2023/05/01 06:58:20;;;;;;;5.57;2.83;;;;;;;;;;6227085;28;20164;-77
2023/05/01 07:01:25;;;;;;;4.88;2.92;;;;;;;;;;6231508;28;20072;-77
2023/05/01 07:04:26;;;;;;;4.95;2.97;;;;;;;;;;6232704;28;20045;-78
2023/05/01 07:07:29;;;;;;;4.13;2.90;;;;;;;;;;6232484;28;20053;-77
2023/05/01 07:10:31;;;;;;;6.60;3.30;;;;;;;;;;6234348;28;20042;-77
2023/05/01 07:13:33;;;;;;;5.03;2.85;;;;;;;;;;6233708;28;20056;-78
2023/05/01 07:16:34;;;;;;;4.32;2.90;;;;;;;;;;6235099;28;20045;-76
2023/05/01 07:19:36;;;;;;;7.15;3.30;;;;;;;;;;6234515;28;20046;-77
2023/05/01 07:22:38;;;;;;;3.87;2.77;;;;;;;;;;6232540;28;20056;-76
2023/05/01 07:25:40;;;;;;;4.10;2.80;;;;;;;;;;6240689;28;20399;-77
2023/05/01 07:28:41;;;;;;;4.90;2.60;;;;;;;;;;6239581;28;20056;-77
2023/05/01 07:31:44;;;;;;;5.18;2.83;;;;;;;;;;6216592;28;20049;-77
2023/05/01 07:34:46;;;;;;;4.18;2.97;;;;;;;;;;6238897;28;20038;-78
2023/05/01 07:37:50;;;;;;;7.15;3.75;;;;;;;;;;6230220;28;20049;-77
2023/05/01 07:40:52;;;;;;;5.30;2.80;;;;;;;;;;6231921;28;20053;-77
2023/05/01 07:43:54;;;;;;;4.38;3.00;;;;;;;;;;6241182;28;20045;-78
2023/05/01 07:47:01;;;;;;;4.55;3.28;;;;;;;;;;6236719;28;20055;-80
2023/05/01 07:50:04;;;;;;;4.80;3.00;;;;;;;;;;6234171;28;20140;-77
2023/05/01 07:53:05;;;;;;;4.63;3.03;;;;;;;;;;6230194;28;20053;-79
2023/05/01 07:56:08;;;;;;;5.32;3.47;;;;;;;;;;6237090;28;20432;-77
2023/05/01 07:59:10;;;;;;;;;;;;;;;;;;6239037;28;20119;-79
2023/05/01 08:02:12;;;;;;;6.53;3.33;;;;;;;;;;6256767;28;19929;-79
2023/05/01 08:05:14;;;;;;;4.47;3.45;;;;;;;;;;6250647;28;20527;-78
2023/05/01 08:08:19;;;;;;;5.63;3.50;;;;;;;;;;6249676;28;20052;-77
2023/05/01 08:11:21;;;;;;;6.38;3.67;;;;;;;;;;6229547;28;20273;-77
2023/05/01 08:14:23;;;;;;;5.97;3.60;;;;;;;;;;6229002;28;20046;-77
2023/05/01 08:17:24;;;;;;;3.90;3.42;;;;;;;;;;6237102;28;20049;-78
2023/05/01 08:20:26;;;;;;;4.00;3.35;;;;;;;;;;6222318;28;20049;-79
2023/05/01 08:23:28;;;;;;;5.80;3.75;;;;;;;;;;6234791;28;20041;-79
2023/05/01 08:26:30;;;;;;;5.53;3.35;;;;;;;;;;6236386;28;20041;-79
2023/05/01 08:29:32;;;;;;;4.75;3.20;;;;;;;;;;6203061;28;20132;-79
2023/05/01 08:32:33;;;;;;;4.07;3.30;;;;;;;;;;6224901;28;20046;-79
2023/05/01 08:35:35;;;;;;;7.03;3.30;;;;;;;;;;6251877;28;20056;-80
2023/05/01 08:38:37;;;;;;;5.22;3.67;;;;;;;;;;6254896;28;20049;-79
2023/05/01 08:41:39;;;;;;;5.32;3.47;;;;;;;;;;6237561;28;20041;-79
2023/05/01 08:44:41;;;;;;;4.43;3.33;;;;;;;;;;6243915;28;20423;-80
2023/05/01 08:47:43;;;;;;;4.33;3.53;;;;;;;;;;6240762;28;20044;-79
2023/05/01 08:50:46;;;;;;;5.20;3.70;;;;;;;;;;6240906;28;20085;-78
2023/05/01 08:53:51;;;;;;;;;;;;;;;;;;6236665;28;20110;-80
2023/05/01 08:56:55;;;;;;;3.67;3.00;;;;;;;;;;6235590;28;19928;-79
2023/05/01 08:59:58;;;;;;;4.15;2.83;;;;;;;;;;6245492;28;20057;-80
2023/05/01 09:03:01;;;;;;;6.68;3.30;;;;;;;;;;6244135;28;20051;-79
2023/05/01 09:06:03;;;;;;;6.90;3.30;;;;;;;;;;6252680;28;20450;-79
2023/05/01 09:09:05;;;;;;;4.00;3.20;;;;;;;;;;6248151;28;20411;-79
2023/05/01 09:12:21;;;;;;;5.30;3.05;;;;;;;;;;6245002;28;20041;-79
2023/05/01 09:15:25;;;;;;;4.63;3.17;;;;;;;;;;6243133;28;20049;-79
2023/05/01 09:18:26;;;;;;;6.20;3.47;;;;;;;;;;6240657;28;20124;-78
2023/05/01 09:21:30;;;;;;;4.05;2.63;;;;;;;;;;6260457;28;20045;-79
2023/05/01 09:24:32;;;;;;;5.97;3.40;;;;;;;;;;6246441;28;20490;-80
2023/05/01 09:27:35;;;;;;;4.35;3.10;;;;;;;;;;6261606;28;20585;-78
2023/05/01 09:30:38;;;;;;;5.03;2.95;;;;;;;;;;6246106;28;20045;-78
2023/05/01 09:33:55;;;;;;;5.47;3.17;;;;;;;;;;6238457;28;20602;-78
2023/05/01 09:36:57;;;;;;;4.93;3.38;;;;;;;;;;6240063;28;20197;-78
2023/05/01 09:40:13;;;;;;;5.00;2.88;;;;;;;;;;6254145;28;20052;-76
2023/05/01 09:43:26;;;;;;;4.82;3.25;;;;;;;;;;6235212;28;20392;-76
2023/05/01 09:46:40;;;;;;;4.78;3.17;;;;;;;;;;6237207;28;20056;-77
2023/05/01 09:49:47;;;;;;;4.88;3.13;;;;;;;;;;6230527;28;20038;-77
2023/05/01 09:52:51;;;;;;;5.78;3.13;;;;;;;;;;6237230;28;20044;-79
2023/05/01 09:56:00;;;;;;;5.15;2.83;;;;;;;;;;6250955;28;20069;-78
2023/05/01 09:59:16;;;;;;;4.45;3.20;;;;;;;;;;6219503;28;20092;-77
2023/05/01 10:02:29;;;;;;;3.83;3.22;;;;;;;;;;6233958;28;20037;-76
2023/05/01 10:05:42;;;;;;;6.93;2.97;;;;;;;;;;6248152;28;20037;-77
2023/05/01 10:08:45;;;;;;;6.03;3.28;;;;;;;;;;6238856;28;20041;-77
2023/05/01 10:11:48;;;;;;;4.32;3.00;;;;;;;;;;6243267;28;20039;-78
2023/05/01 10:14:54;;;;;;;4.18;2.80;;;;;;;;;;6247677;28;20048;-77
2023/05/01 10:17:56;;;;;;;4.32;2.80;;;;;;;;;;6246861;28;20124;-78
2023/05/01 10:20:58;;;;;;;3.92;2.90;;;;;;;;;;6236342;28;20049;-77
2023/05/01 10:24:04;;;;;;;3.38;2.85;;;;;;;;;;6233585;28;20049;-77
2023/05/01 10:27:06;;;;;;;4.28;2.88;;;;;;;;;;6239239;28;20053;-77
2023/05/01 10:30:09;;;;;;;4.50;2.80;;;;;;;;;;6235276;28;20047;-78
2023/05/01 10:33:12;;;;;;;3.70;3.03;;;;;;;;;;6240916;28;20063;-77
2023/05/01 10:36:25;;;;;;;3.25;2.83;;;;;;;;;;6244015;28;20053;-77
2023/05/01 10:39:33;;;;;;;5.88;3.13;;;;;;;;;;6231947;28;20136;-77
2023/05/01 10:43:17;;;;;;;3.90;3.03;;;;;;;;;;6234090;28;20126;-76
2023/05/01 10:46:19;;;;;;;;;;;;;;;;;;6233698;28;20094;-77
2023/05/01 10:49:21;;;;;;;3.88;2.60;;;;;;;;;;6235856;28;19929;-77
2023/05/01 10:52:23;;;;;;;3.95;2.58;;;;;;;;;;6235893;28;20041;-77
2023/05/01 10:55:35;;;;;;;3.67;2.05;;;;;;;;;;6235641;28;20067;-78
2023/05/01 10:58:37;;;;;;;3.47;2.45;;;;;;;;;;6228366;28;20041;-77
2023/05/01 11:01:39;;;;;;;2.65;2.20;;;;;;;;;;6243608;28;20689;-78
2023/05/01 11:04:47;;;;;;;3.20;2.90;;;;;;;;;;6238728;28;20128;-77
2023/05/01 11:08:32;;;;;;;2.38;2.00;;;;;;;;;;6237608;28;20136;-77
2023/05/01 11:11:35;;;;;;;3.45;2.83;;;;;;;;;;6247673;28;20507;-77
2023/05/01 11:14:56;;;;;;;3.45;3.15;;;;;;;;;;6226181;28;20174;-77
2023/05/01 11:18:02;;;;;;;4.30;2.90;;;;;;;;;;6234797;28;20065;-78
2023/05/01 11:21:04;;;;;;;4.57;3.08;;;;;;;;;;6257844;28;20805;-78
2023/05/01 11:24:06;;;;;;;3.35;2.83;;;;;;;;;;6245059;28;20055;-77
2023/05/01 11:27:12;;;;;;;3.30;3.00;;;;;;;;;;6247114;28;20049;-78
2023/05/01 11:30:14;;;;;;;3.17;2.67;;;;;;;;;;6251046;28;20206;-78
2023/05/01 11:33:21;;;;;;;5.00;2.80;;;;;;;;;;6241477;28;20046;-77
2023/05/01 11:36:24;;;;;;;4.38;2.83;;;;;;;;;;6237894;28;20110;-77
2023/05/01 11:39:25;;;;;;;2.97;2.60;;;;;;;;;;6237324;28;20071;-76
2023/05/01 11:42:27;;;;;;;3.17;2.80;;;;;;;;;;6248456;28;20061;-77
2023/05/01 11:45:30;;;;;;;3.70;2.70;;;;;;;;;;6229913;28;20052;-78
2023/05/01 11:48:31;;;;;;;3.78;2.70;;;;;;;;;;6234337;28;20163;-77
2023/05/01 11:51:33;;;;;;;2.63;2.42;;;;;;;;;;6232729;28;20069;-77
2023/05/01 11:54:46;;;;;;;4.25;3.08;;;;;;;;;;6241921;28;20052;-77
2023/05/01 11:57:48;;;;;;;;;;;;;;;;;;6236692;28;20047;-78
2023/05/01 12:00:50;;;;;;;4.32;2.65;;;;;;;;;;6241360;28;19947;-77
2023/05/01 12:03:51;;;;;;;4.60;2.55;;;;;;;;;;6257712;28;20055;-78
2023/05/01 12:06:53;;;;;;;3.10;2.67;;;;;;;;;;6253674;28;20063;-77
2023/05/01 12:09:55;;;;;;;3.00;2.70;;;;;;;;;;6250083;28;20772;-77
2023/05/01 12:12:56;;;;;;;2.92;2.47;;;;;;;;;;6256307;28;20049;-77
2023/05/01 12:15:58;;;;;;;4.57;2.58;;;;;;;;;;6260759;28;20049;-77
2023/05/01 12:19:00;;;;;;;2.92;2.42;;;;;;;;;;6243094;28;20045;-78
2023/05/01 12:22:07;;;;;;;3.47;2.25;;;;;;;;;;6242709;28;20049;-77
2023/05/01 12:25:09;;;;;;;4.82;2.80;;;;;;;;;;6224366;28;20049;-76
2023/05/01 12:28:17;;;;;;;5.28;2.67;;;;;;;;;;6218574;28;20050;-77
2023/05/01 12:31:19;;;;;;;2.92;2.50;;;;;;;;;;6240584;28;20037;-77
2023/05/01 12:34:28;;;;;;;;;;;;;;;;;;6224795;28;20126;-76
2023/05/01 12:37:31;;;;;;;3.67;2.58;;;;;;;;;;6245886;28;19928;-77
2023/05/01 12:40:33;;;;;;;3.90;2.72;;;;;;;;;;6254169;28;20166;-77
2023/05/01 12:43:36;;;;;;;3.22;2.60;;;;;;;;;;6238200;28;20128;-78
2023/05/01 12:46:37;;;;;;;4.50;2.58;;;;;;;;;;6237804;28;20060;-77
2023/05/01 12:49:40;;;;;;;2.78;2.47;;;;;;;;;;6252168;28;20072;-78
2023/05/01 12:52:42;;;;;;;3.08;2.60;;;;;;;;;;6237654;28;20037;-77
2023/05/01 12:55:45;;;;;;;3.08;2.47;;;;;;;;;;6236782;28;20127;-77
2023/05/01 12:58:47;;;;;;;2.67;2.47;;;;;;;;;;6238607;28;20041;-77
2023/05/01 13:02:03;;;;;;;3.13;2.38;;;;;;;;;;6238639;28;20040;-78
2023/05/01 13:05:10;;;;;;;2.97;2.78;;;;;;;;;;6238182;28;20057;-78
2023/05/01 13:08:12;;;;;;;2.55;2.15;;;;;;;;;;6242533;28;20592;-77
2023/05/01 13:11:16;;;;;;;2.42;2.13;;;;;;;;;;6239850;28;20060;-77
2023/05/01 13:14:17;;;;;;;2.95;2.15;;;;;;;;;;6239787;28;20052;-78
2023/05/01 13:17:27;;;;;;;2.30;2.00;;;;;;;;;;6220819;28;20174;-77
2023/05/01 13:20:29;;;;;;;2.40;2.20;;;;;;;;;;6241415;28;20045;-77
2023/05/01 13:23:31;;;;;;;4.50;2.40;;;;;;;;;;6253492;28;20388;-77
2023/05/01 13:26:34;;;;;;;4.63;2.40;;;;;;;;;;6244498;28;20124;-77
2023/05/01 13:29:44;;;;;;;2.90;2.30;;;;;;;;;;6245499;28;20410;-77
2023/05/01 13:32:47;;;;;;;2.30;2.10;;;;;;;;;;6235998;28;20423;-78
2023/05/01 13:35:48;;;;;;;;;;;;;;;;;;6251823;28;20038;-77
2023/05/01 13:38:52;;;;;;;4.82;3.30;;;;;;;;;;6258127;28;19927;-78
2023/05/01 13:41:54;;;;;;;4.50;3.40;;;;;;;;;;6238306;28;20048;-77
2023/05/01 13:44:57;;;;;;;4.05;3.20;;;;;;;;;;6234088;28;20037;-77
2023/05/01 13:47:58;;;;;;;5.53;3.78;;;;;;;;;;6253220;28;20059;-77
2023/05/01 13:51:00;;;;;;;4.00;3.35;;;;;;;;;;6236007;28;20045;-78
2023/05/01 13:54:07;;;;;;;4.38;3.13;;;;;;;;;;6239842;28;20052;-77
2023/05/01 13:57:09;;;;;;;4.35;3.42;;;;;;;;;;6236496;28;20056;-78
2023/05/01 14:00:16;;;;;;;4.07;3.45;;;;;;;;;;6253934;28;20040;-77
2023/05/01 14:03:18;;;;;;;3.83;3.42;;;;;;;;;;6235887;28;20132;-78
2023/05/01 14:06:20;;;;;;;3.77;3.40;;;;;;;;;;6239411;28;20041;-77
2023/05/01 14:09:22;;;;;;;4.75;3.30;;;;;;;;;;6239187;28;20041;-77
2023/05/01 14:12:28;;;;;;;3.65;3.25;;;;;;;;;;6241624;28;20045;-78
2023/05/01 14:15:32;;;;;;;4.72;3.38;;;;;;;;;;6242130;28;20195;-77
2023/05/01 14:18:35;;;;;;;3.78;3.05;;;;;;;;;;6257954;28;20056;-78
2023/05/01 14:21:42;;;;;;;4.25;3.00;;;;;;;;;;6230604;28;20126;-78
2023/05/01 14:24:44;;;;;;;3.80;2.72;;;;;;;;;;6238354;28;20122;-77
2023/05/01 14:27:46;;;;;;;4.47;2.90;;;;;;;;;;6236840;28;20040;-77
2023/05/01 14:30:49;;;;;;;3.67;2.80;;;;;;;;;;6239438;28;20045;-77
2023/05/01 14:33:56;;;;;;;4.10;3.10;;;;;;;;;;6238718;28;20503;-77
2023/05/01 14:36:58;;;;;;;3.90;2.70;;;;;;;;;;6236013;28;20089;-77
2023/05/01 14:40:01;;;;;;;3.70;2.97;;;;;;;;;;6237235;28;20148;-78
2023/05/01 14:43:03;;;;;;;3.92;3.10;;;;;;;;;;6232776;28;20045;-77
2023/05/01 14:46:04;;;;;;;3.85;2.88;;;;;;;;;;6239110;28;20643;-77
2023/05/01 14:49:06;;;;;;;5.40;3.23;;;;;;;;;;6236078;28;20614;-78
2023/05/01 14:52:08;;;;;;;4.10;3.30;;;;;;;;;;6216033;28;20042;-77
2023/05/01 14:55:11;;;;;;;4.25;3.55;;;;;;;;;;6256598;28;20507;-78
2023/05/01 14:58:12;;;;;;;3.78;2.88;;;;;;;;;;6257009;28;20139;-77
2023/05/01 15:01:14;;;;;;;4.25;3.03;;;;;;;;;;6242790;28;20171;-77
2023/05/01 15:04:16;;;;;;;3.30;3.00;;;;;;;;;;6248199;28;20045;-77
2023/05/01 15:07:18;;;;;;;4.85;2.90;;;;;;;;;;6243440;28;20054;-78
2023/05/01 15:10:22;;;;;;;3.10;2.78;;;;;;;;;;6263725;28;20049;-76
2023/05/01 15:13:23;;;;;;;3.63;2.72;;;;;;;;;;6246168;28;20049;-77
2023/05/01 15:16:25;;;;;;;2.85;2.53;;;;;;;;;;6246002;28;20051;-79
2023/05/01 15:19:27;;;;;;;3.85;2.80;;;;;;;;;;6255029;28;20049;-78
2023/05/01 15:22:28;;;;;;;3.65;3.22;;;;;;;;;;6243764;28;20045;-76
2023/05/01 15:25:31;;;;;;;5.35;3.13;;;;;;;;;;6257978;28;20414;-78
2023/05/01 15:28:32;;;;;;;3.38;3.00;;;;;;;;;;6241745;28;20041;-76
2023/05/01 15:31:34;;;;;;;4.70;3.35;;;;;;;;;;6258097;28;20053;-78
2023/05/01 15:34:36;;;;;;;4.32;2.75;;;;;;;;;;6255324;28;20064;-79
2023/05/01 15:37:37;;;;;;;3.78;2.65;;;;;;;;;;6242882;28;20493;-77
2023/05/01 15:40:44;;;;;;;3.30;2.97;;;;;;;;;;6241953;28;20056;-76
2023/05/01 15:43:48;;;;;;;3.33;2.63;;;;;;;;;;6250381;28;20049;-77
2023/05/01 15:46:51;;;;;;;4.13;3.00;;;;;;;;;;6243075;28;20045;-76
2023/05/01 15:49:54;;;;;;;3.63;3.03;;;;;;;;;;6239669;28;20044;-78
2023/05/01 15:52:58;;;;;;;3.13;2.83;;;;;;;;;;6231261;28;20057;-77
2023/05/01 15:56:00;;;;;;;3.40;3.10;;;;;;;;;;6234935;28;20042;-77
2023/05/01 15:59:06;;;;;;;4.53;2.95;;;;;;;;;;6238842;28;20056;-77
2023/05/01 16:02:08;;;;;;;3.47;3.15;;;;;;;;;;6241370;28;20045;-77
2023/05/01 16:05:09;;;;;;;5.18;2.80;;;;;;;;;;6239834;28;20530;-77
2023/05/01 16:08:12;;;;;;;3.35;2.50;;;;;;;;;;6236535;28;20128;-77
2023/05/01 16:11:13;;;;;;;2.90;2.70;;;;;;;;;;6237420;28;20068;-77
2023/05/01 16:14:15;;;;;;;2.80;2.60;;;;;;;;;;6238711;28;20047;-77
2023/05/01 16:17:18;;;;;;;2.95;2.40;;;;;;;;;;6255956;28;20042;-77
2023/05/01 16:20:20;;;;;;;3.75;2.58;;;;;;;;;;6239465;28;20070;-77
2023/05/01 16:23:24;;;;;;;3.60;3.10;;;;;;;;;;6239763;28;21849;-78
2023/05/01 16:26:27;;;;;;;4.05;3.22;;;;;;;;;;6240140;28;20411;-77
2023/05/01 16:29:34;;;;;;;3.22;2.92;;;;;;;;;;6240106;28;20045;-79
2023/05/01 16:32:38;;;;;;;3.75;2.67;;;;;;;;;;6239767;28;20212;-78
2023/05/01 16:35:40;;;;;;;3.53;2.60;;;;;;;;;;6250823;28;20519;-77
2023/05/01 16:38:42;;;;;;;4.72;2.85;;;;;;;;;;6256274;28;20045;-78
2023/05/01 16:41:45;;;;;;;3.08;2.80;;;;;;;;;;6256047;28;20404;-77
2023/05/01 16:44:47;;;;;;;;;;;;;;;;;;6238448;28;20041;-78
2023/05/01 16:47:48;;;;;;;2.85;2.60;;;;;;;;;;6256766;28;19921;-77
2023/05/01 16:50:50;;;;;;;4.28;2.50;;;;;;;;;;6255401;28;20047;-75
2023/05/01 16:53:52;;;;;;;2.95;2.60;;;;;;;;;;6254798;28;20041;-77
2023/05/01 16:56:53;;;;;;;2.95;2.35;;;;;;;;;;6244763;28;20040;-78
2023/05/01 16:59:55;;;;;;;2.60;2.28;;;;;;;;;;6237973;28;20518;-76
2023/05/01 17:02:57;;;;;;;4.93;2.70;;;;;;;;;;6260728;28;20064;-77
2023/05/01 17:05:59;;;;;;;4.05;2.83;;;;;;;;;;6256797;28;20406;-78
2023/05/01 17:09:01;;;;;;;3.85;2.60;;;;;;;;;;6247993;28;20053;-77
2023/05/01 17:12:04;;;;;;;3.17;2.60;;;;;;;;;;6247927;28;20128;-77
2023/05/01 17:15:07;;;;;;;3.00;2.67;;;;;;;;;;6244276;28;20629;-77
2023/05/01 17:18:08;;;;;;;3.03;2.55;;;;;;;;;;6240073;28;20491;-78
2023/05/01 17:21:10;;;;;;;2.55;2.30;;;;;;;;;;6241202;28;20044;-77
2023/05/01 17:24:12;;;;;;;3.07;2.77;;;;;;;;;;6243647;28;20045;-77
2023/05/01 17:27:14;;;;;;;2.53;2.30;;;;;;;;;;6256094;28;20046;-78
2023/05/01 17:30:17;;;;;;;2.53;2.33;;;;;;;;;;6238765;28;20505;-78
2023/05/01 17:33:18;;;;;;;2.40;2.20;;;;;;;;;;6252800;28;20046;-78
2023/05/01 17:36:22;;;;;;;3.85;2.90;;;;;;;;;;6229356;28;20041;-77
2023/05/01 17:39:25;;;;;;;3.95;2.75;;;;;;;;;;6234981;28;20053;-78
2023/05/01 17:42:27;;;;;;;4.10;2.78;;;;;;;;;;6236788;28;20045;-77
2023/05/01 17:45:29;;;;;;;3.20;2.50;;;;;;;;;;6234759;28;20132;-77
2023/05/01 17:48:30;;;;;;;3.97;2.88;;;;;;;;;;6240819;28;20048;-78
2023/05/01 17:51:32;;;;;;;3.30;2.50;;;;;;;;;;6238357;28;20510;-78
2023/05/01 17:54:34;;;;;;;3.08;2.53;;;;;;;;;;6254574;28;20046;-78
2023/05/01 17:57:37;;;;;;;3.40;2.60;;;;;;;;;;6259054;28;20041;-78
2023/05/01 18:00:40;;;;;;;6.60;2.40;;;;;;;;;;6239484;28;20095;-78
2023/05/01 18:03:41;;;;;;;3.22;2.00;;;;;;;;;;6238761;28;20079;-78
2023/05/01 18:06:43;;;;;;;2.22;2.00;;;;;;;;;;6252773;28;20045;-79
2023/05/01 18:09:45;;;;;;;3.22;1.98;;;;;;;;;;6236131;28;20052;-78
2023/05/01 18:12:48;;;;;;;2.67;2.13;;;;;;;;;;6251046;28;20056;-78
2023/05/01 18:15:50;;;;;;;2.00;1.90;;;;;;;;;;6235691;28;20040;-78
2023/05/01 18:18:52;;;;;;;2.40;2.00;;;;;;;;;;6232151;28;20760;-77
2023/05/01 18:21:54;;;;;;;3.00;2.10;;;;;;;;;;6234224;28;20060;-77
2023/05/01 18:24:55;;;;;;;2.50;2.20;;;;;;;;;;6232649;28;20517;-78
2023/05/01 18:27:57;;;;;;;2.40;2.20;;;;;;;;;;6230906;28;20192;-77